createdAt,value
2022-10-29T00:01:56.096Z,9.83
2022-10-29T00:04:31.123Z,9.30
2022-10-29T00:07:05.975Z,9.07
2022-10-29T00:09:40.919Z,7.77
2022-10-29T00:12:15.855Z,8.53
2022-10-29T00:14:51.140Z,9.97
2022-10-29T00:17:26.094Z,9.43
2022-10-29T00:20:01.016Z,9.90
2022-10-29T00:22:36.000Z,10.20
2022-10-29T00:25:10.952Z,12.63
2022-10-29T00:27:45.848Z,8.67
2022-10-29T00:30:20.706Z,17.80
2022-10-29T00:32:55.969Z,10.73
2022-10-29T00:35:30.980Z,10.37
2022-10-29T00:38:05.877Z,10.23
2022-10-29T00:40:40.747Z,14.87
2022-10-29T00:43:19.139Z,12.57
2022-10-29T00:46:09.721Z,12.10
2022-10-29T00:48:47.881Z,16.73
2022-10-29T00:51:23.330Z,10.70
2022-10-29T00:54:09.274Z,10.57
2022-10-29T00:57:04.710Z,10.10
2022-10-29T00:59:41.723Z,12.00
2022-10-29T01:02:17.370Z,12.10
2022-10-29T01:04:53.398Z,11.33
2022-10-29T01:07:28.909Z,10.63
2022-10-29T01:10:04.596Z,11.30
2022-10-29T01:16:03.468Z,10.73
2022-10-29T01:18:50.177Z,12.80
2022-10-29T01:21:42.738Z,12.10
2022-10-29T01:24:42.764Z,11.90
2022-10-29T01:27:42.283Z,13.73
2022-10-29T01:30:38.646Z,10.77
2022-10-29T01:33:41.479Z,9.90
2022-10-29T01:36:35.343Z,9.87
2022-10-29T01:39:21.847Z,6.80
2022-10-29T01:42:03.448Z,11.57
2022-10-29T01:44:51.256Z,9.27
2022-10-29T01:47:31.658Z,9.03
2022-10-29T01:50:11.896Z,7.33
2022-10-29T01:52:48.563Z,8.47
2022-10-29T01:55:31.087Z,8.03
2022-10-29T01:58:07.461Z,10.77
2022-10-29T02:01:14.762Z,6.80
2022-10-29T02:03:58.549Z,10.13
2022-10-29T02:07:10.980Z,15.40
2022-10-29T02:10:11.831Z,9.27
2022-10-29T02:12:50.765Z,12.23
2022-10-29T02:15:41.548Z,6.47
2022-10-29T02:18:17.525Z,9.23
2022-10-29T02:20:52.509Z,10.77
2022-10-29T02:23:27.502Z,14.80
2022-10-29T02:26:02.354Z,7.13
2022-10-29T02:28:37.318Z,8.87
2022-10-29T02:31:12.236Z,9.23
2022-10-29T02:33:47.188Z,12.17
2022-10-29T02:36:22.091Z,8.13
2022-10-29T02:38:57.970Z,9.03
2022-10-29T02:41:33.864Z,6.73
2022-10-29T02:44:08.719Z,8.50
2022-10-29T02:46:43.572Z,6.40
2022-10-29T02:49:18.487Z,8.40
2022-10-29T02:51:53.441Z,6.77
2022-10-29T02:54:28.356Z,8.03
2022-10-29T02:57:03.335Z,6.33
2022-10-29T02:59:38.241Z,7.80
2022-10-29T03:02:13.224Z,7.90
2022-10-29T03:04:48.169Z,7.23
2022-10-29T03:07:23.118Z,9.17
2022-10-29T03:09:58.065Z,7.93
2022-10-29T03:12:33.348Z,8.30
2022-10-29T03:15:08.978Z,7.83
2022-10-29T03:17:43.928Z,9.23
2022-10-29T03:20:19.073Z,6.93
2022-10-29T03:22:53.948Z,7.10
2022-10-29T03:25:28.888Z,6.90
2022-10-29T03:28:03.989Z,10.50
2022-10-29T03:30:38.875Z,9.90
2022-10-29T03:33:13.989Z,9.73
2022-10-29T03:35:49.080Z,5.97
2022-10-29T03:38:24.362Z,5.87
2022-10-29T03:40:59.637Z,7.10
2022-10-29T03:43:39.076Z,6.10
2022-10-29T03:46:14.018Z,7.90
2022-10-29T03:48:52.091Z,9.60
2022-10-29T03:51:27.117Z,16.17
2022-10-29T03:54:02.334Z,10.50
2022-10-29T03:56:37.304Z,7.10
2022-10-29T03:59:12.284Z,8.80
2022-10-29T04:01:47.368Z,7.83
2022-10-29T04:04:22.349Z,7.37
2022-10-29T04:06:57.252Z,9.10
2022-10-29T04:09:32.207Z,10.90
2022-10-29T04:12:08.291Z,6.43
2022-10-29T04:14:45.666Z,7.53
2022-10-29T04:17:20.867Z,5.30
2022-10-29T04:19:55.862Z,8.03
2022-10-29T04:24:48.651Z,6.10
2022-10-29T04:31:16.092Z,7.67
2022-10-29T04:33:53.538Z,6.73
2022-10-29T04:36:28.447Z,9.17
2022-10-29T04:39:04.087Z,6.00
2022-10-29T04:41:39.159Z,8.67
2022-10-29T04:44:14.126Z,6.00
2022-10-29T04:46:49.173Z,12.57
2022-10-29T04:49:24.130Z,6.00
2022-10-29T04:51:59.055Z,10.10
2022-10-29T04:54:33.980Z,7.23
2022-10-29T04:57:08.842Z,7.97
2022-10-29T04:59:43.811Z,8.13
2022-10-29T05:02:18.707Z,6.60
2022-10-29T05:04:54.709Z,5.30
2022-10-29T05:07:29.595Z,13.07
2022-10-29T05:10:05.257Z,8.20
2022-10-29T05:12:40.456Z,9.23
2022-10-29T05:15:15.363Z,10.67
2022-10-29T05:17:50.268Z,9.60
2022-10-29T05:20:26.026Z,7.83
2022-10-29T05:23:10.033Z,7.80
2022-10-29T05:25:49.037Z,8.73
2022-10-29T05:28:24.725Z,8.33
2022-10-29T05:31:04.116Z,7.07
2022-10-29T05:33:39.008Z,8.50
2022-10-29T05:36:13.931Z,7.90
2022-10-29T05:38:48.804Z,7.10
2022-10-29T05:41:23.823Z,6.70
2022-10-29T05:43:58.810Z,7.37
2022-10-29T05:46:33.759Z,9.03
2022-10-29T05:49:08.632Z,8.90
2022-10-29T05:51:43.457Z,10.37
2022-10-29T05:54:18.589Z,9.40
2022-10-29T05:56:53.502Z,7.70
2022-10-29T05:59:32.658Z,7.80
2022-10-29T06:02:10.347Z,8.67
2022-10-29T06:04:45.458Z,8.90
2022-10-29T06:07:20.830Z,9.10
2022-10-29T06:09:55.769Z,7.03
2022-10-29T06:12:34.978Z,16.10
2022-10-29T06:15:10.564Z,10.40
2022-10-29T06:17:46.906Z,8.03
2022-10-29T06:20:22.140Z,9.73
2022-10-29T06:22:58.627Z,6.90
2022-10-29T06:25:34.095Z,7.97
2022-10-29T06:28:19.075Z,6.67
2022-10-29T06:30:54.052Z,10.30
2022-10-29T06:33:29.105Z,8.13
2022-10-29T06:36:04.590Z,9.20
2022-10-29T06:38:39.508Z,6.57
2022-10-29T06:41:14.803Z,9.57
2022-10-29T06:43:50.731Z,9.77
2022-10-29T06:46:25.739Z,9.70
2022-10-29T06:49:01.123Z,6.90
2022-10-29T06:51:35.976Z,8.47
2022-10-29T06:54:11.066Z,10.23
2022-10-29T06:56:46.009Z,8.50
2022-10-29T06:59:20.882Z,7.23
2022-10-29T07:01:55.856Z,9.23
2022-10-29T07:04:30.748Z,10.13
2022-10-29T07:07:05.580Z,8.57
2022-10-29T07:09:40.887Z,11.10
2022-10-29T07:12:15.832Z,8.20
2022-10-29T07:14:50.824Z,6.93
2022-10-29T07:17:25.695Z,7.47
2022-10-29T07:20:00.570Z,8.87
2022-10-29T07:22:35.949Z,8.00
2022-10-29T07:25:10.802Z,9.70
2022-10-29T07:27:45.891Z,9.20
2022-10-29T07:30:21.620Z,14.20
2022-10-29T07:32:56.626Z,9.20
2022-10-29T07:35:33.270Z,9.10
2022-10-29T07:38:11.493Z,7.90
2022-10-29T07:40:51.018Z,8.83
2022-10-29T07:43:25.884Z,9.20
2022-10-29T07:46:00.876Z,14.30
2022-10-29T07:48:35.770Z,8.13
2022-10-29T07:51:10.710Z,8.80
2022-10-29T07:53:45.625Z,8.10
2022-10-29T07:56:20.598Z,10.20
2022-10-29T07:58:55.474Z,9.53
2022-10-29T08:01:30.551Z,7.80
2022-10-29T08:04:05.653Z,8.00
2022-10-29T08:06:40.726Z,6.53
2022-10-29T08:09:15.794Z,5.40
2022-10-29T08:11:50.688Z,6.90
2022-10-29T08:14:25.645Z,6.63
2022-10-29T08:17:00.560Z,8.40
2022-10-29T08:19:35.420Z,13.87
2022-10-29T08:22:10.306Z,11.23
2022-10-29T08:24:45.248Z,8.47
2022-10-29T08:27:20.241Z,7.53
2022-10-29T08:29:55.184Z,9.43
2022-10-29T08:32:30.178Z,7.53
2022-10-29T08:35:05.558Z,7.63
2022-10-29T08:37:45.191Z,6.33
2022-10-29T08:40:47.902Z,7.03
2022-10-29T08:43:54.775Z,9.83
2022-10-29T08:46:38.824Z,7.60
2022-10-29T08:49:33.042Z,7.20
2022-10-29T08:52:24.238Z,7.80
2022-10-29T08:55:25.496Z,10.30
2022-10-29T08:58:25.584Z,11.70
2022-10-29T09:01:00.762Z,9.33
2022-10-29T09:03:35.641Z,6.57
2022-10-29T09:06:11.675Z,5.40
2022-10-29T09:09:21.865Z,9.80
2022-10-29T09:12:14.789Z,11.37
2022-10-29T09:15:26.620Z,8.57
2022-10-29T09:18:48.924Z,6.67
2022-10-29T09:21:23.723Z,6.77
2022-10-29T09:24:08.648Z,7.50
2022-10-29T09:27:00.486Z,7.07
2022-10-29T09:30:03.673Z,5.90
2022-10-29T09:32:54.549Z,7.20
2022-10-29T09:35:44.260Z,5.67
2022-10-29T09:38:42.816Z,5.40
2022-10-29T09:41:17.693Z,7.40
2022-10-29T09:44:01.990Z,8.93
2022-10-29T09:46:59.753Z,6.47
2022-10-29T09:50:17.383Z,7.70
2022-10-29T09:52:53.389Z,8.70
2022-10-29T09:55:41.662Z,6.80
2022-10-29T09:58:23.013Z,9.77
2022-10-29T10:00:58.046Z,10.67
2022-10-29T10:03:38.681Z,6.70
2022-10-29T10:06:16.718Z,5.77
2022-10-29T10:09:06.023Z,6.03
2022-10-29T10:11:44.135Z,6.77
2022-10-29T10:14:22.685Z,8.70
2022-10-29T10:16:59.676Z,6.37
2022-10-29T10:19:34.590Z,7.00
2022-10-29T10:22:20.309Z,11.40
2022-10-29T10:24:56.031Z,6.47
2022-10-29T10:27:31.560Z,7.20
2022-10-29T10:30:17.864Z,7.10
2022-10-29T10:32:52.804Z,7.27
2022-10-29T10:35:30.559Z,9.50
2022-10-29T10:38:09.986Z,6.77
2022-10-29T10:40:59.077Z,6.53
2022-10-29T10:43:35.039Z,4.73
2022-10-29T10:46:24.721Z,7.47
2022-10-29T10:49:12.043Z,4.70
2022-10-29T10:51:52.552Z,7.33
2022-10-29T10:54:44.146Z,4.07
2022-10-29T10:57:23.331Z,5.57
2022-10-29T11:00:06.483Z,5.47
2022-10-29T11:02:50.945Z,3.30
2022-10-29T11:05:36.986Z,7.80
2022-10-29T11:08:37.437Z,6.93
2022-10-29T11:11:32.554Z,4.13
2022-10-29T11:14:30.657Z,5.30
2022-10-29T11:17:15.509Z,3.87
2022-10-29T11:19:52.640Z,5.37
2022-10-29T11:23:15.363Z,7.37
2022-10-29T11:26:19.358Z,4.10
2022-10-29T11:29:25.937Z,6.70
2022-10-29T11:32:16.049Z,4.93
2022-10-29T11:35:10.964Z,15.60
2022-10-29T11:38:13.243Z,6.33
2022-10-29T11:40:58.662Z,6.40
2022-10-29T11:43:34.106Z,7.30
2022-10-29T11:47:00.459Z,10.30
2022-10-29T11:49:48.262Z,8.27
2022-10-29T11:53:16.701Z,10.73
2022-10-29T11:56:24.298Z,11.83
2022-10-29T11:59:27.748Z,9.77
2022-10-29T12:02:27.201Z,7.27
2022-10-29T12:05:57.798Z,3.90
2022-10-29T12:09:31.249Z,6.27
2022-10-29T12:12:36.969Z,6.23
2022-10-29T12:15:25.524Z,7.50
2022-10-29T12:18:27.216Z,7.10
2022-10-29T12:21:55.564Z,4.50
2022-10-29T12:25:04.288Z,4.80
2022-10-29T12:28:01.573Z,8.40
2022-10-29T12:31:02.568Z,6.27
2022-10-29T12:33:56.215Z,10.33
2022-10-29T12:36:56.689Z,5.43
2022-10-29T12:39:39.091Z,6.00
2022-10-29T12:42:24.480Z,6.20
2022-10-29T12:46:06.476Z,8.80
2022-10-29T12:48:53.735Z,5.50
2022-10-29T12:51:51.741Z,7.30
2022-10-29T12:54:49.817Z,5.90
2022-10-29T12:57:34.640Z,3.17
2022-10-29T13:00:41.739Z,7.60
2022-10-29T13:03:58.861Z,4.87
2022-10-29T13:06:42.848Z,7.70
2022-10-29T13:09:22.691Z,7.70
2022-10-29T13:12:05.227Z,7.93
2022-10-29T13:15:01.670Z,9.87
2022-10-29T13:17:39.806Z,7.10
2022-10-29T13:20:41.339Z,8.80
2022-10-29T13:23:22.381Z,5.03
2022-10-29T13:25:59.313Z,9.97
2022-10-29T13:28:37.137Z,7.30
2022-10-29T13:31:14.979Z,6.83
2022-10-29T13:33:50.263Z,8.03
2022-10-29T13:36:25.169Z,6.53
2022-10-29T13:39:07.385Z,7.87
2022-10-29T13:41:50.097Z,7.53
2022-10-29T13:44:27.855Z,7.87
2022-10-29T13:47:20.360Z,7.77
2022-10-29T13:49:55.492Z,9.33
2022-10-29T13:52:37.261Z,5.80
2022-10-29T13:55:16.419Z,6.00
2022-10-29T13:58:34.625Z,4.57
2022-10-29T14:01:15.568Z,5.23
2022-10-29T14:04:06.379Z,7.83
2022-10-29T14:06:41.908Z,4.37
2022-10-29T14:09:23.351Z,4.63
2022-10-29T14:12:03.192Z,4.47
2022-10-29T14:14:45.203Z,8.10
2022-10-29T14:17:20.247Z,9.40
2022-10-29T14:19:55.274Z,7.50
2022-10-29T14:22:38.524Z,5.50
2022-10-29T14:25:36.158Z,6.07
2022-10-29T14:28:25.271Z,4.13
2022-10-29T14:31:03.825Z,4.17
2022-10-29T14:33:44.536Z,4.73
2022-10-29T14:36:32.039Z,10.10
2022-10-29T14:39:55.532Z,4.53
2022-10-29T14:42:37.801Z,7.73
2022-10-29T14:45:30.008Z,8.37
2022-10-29T14:48:16.289Z,10.03
2022-10-29T14:50:51.540Z,7.90
2022-10-29T14:53:30.743Z,6.00
2022-10-29T14:56:11.458Z,8.27
2022-10-29T14:58:47.554Z,5.93
2022-10-29T15:01:22.661Z,7.63
2022-10-29T15:04:02.100Z,5.73
2022-10-29T15:06:37.582Z,6.57
2022-10-29T15:09:21.214Z,7.43
2022-10-29T15:12:07.355Z,6.10
2022-10-29T15:14:53.761Z,6.03
2022-10-29T15:17:32.243Z,6.67
2022-10-29T15:20:20.055Z,5.93
2022-10-29T15:22:57.656Z,7.80
2022-10-29T15:25:46.288Z,5.90
2022-10-29T15:28:28.020Z,7.17
2022-10-29T15:31:04.030Z,6.40
2022-10-29T15:33:40.915Z,7.50
2022-10-29T15:36:15.906Z,6.33
2022-10-29T15:39:10.896Z,7.37
2022-10-29T15:41:49.812Z,12.10
2022-10-29T15:44:37.942Z,10.13
2022-10-29T15:47:27.802Z,10.10
2022-10-29T15:50:04.737Z,11.67
2022-10-29T15:52:51.576Z,14.30
2022-10-29T15:55:30.208Z,8.53
2022-10-29T15:58:11.636Z,7.73
2022-10-29T16:00:46.696Z,13.63
2022-10-29T16:03:25.380Z,7.73
2022-10-29T16:06:06.054Z,9.73
2022-10-29T16:08:49.525Z,8.20
2022-10-29T16:11:24.825Z,7.53
2022-10-29T16:14:00.309Z,11.00
2022-10-29T16:16:35.236Z,8.63
2022-10-29T16:19:10.237Z,12.40
2022-10-29T16:21:45.283Z,10.60
2022-10-29T16:24:21.162Z,10.40
2022-10-29T16:26:56.281Z,10.77
2022-10-29T16:29:31.112Z,8.00
2022-10-29T16:32:06.218Z,11.40
2022-10-29T16:34:41.205Z,11.60
2022-10-29T16:37:18.934Z,8.70
2022-10-29T16:39:54.114Z,9.53
2022-10-29T16:42:36.718Z,13.50
2022-10-29T16:45:23.793Z,10.33
2022-10-29T16:47:59.698Z,8.20
2022-10-29T16:50:35.242Z,15.90
2022-10-29T16:53:11.093Z,8.43
2022-10-29T16:55:45.961Z,12.30
2022-10-29T16:58:21.089Z,11.47
2022-10-29T17:01:08.529Z,12.70
2022-10-29T17:03:43.840Z,15.30
2022-10-29T17:06:19.046Z,12.90
2022-10-29T17:08:53.957Z,8.43
2022-10-29T17:11:28.951Z,10.40
2022-10-29T17:14:04.023Z,11.70
2022-10-29T17:16:38.991Z,8.47
2022-10-29T17:19:14.081Z,9.67
2022-10-29T17:21:49.148Z,15.53
2022-10-29T17:24:27.521Z,8.40
2022-10-29T17:27:02.498Z,14.23
2022-10-29T17:29:37.691Z,15.10
2022-10-29T17:32:12.641Z,10.60
2022-10-29T17:34:48.611Z,11.63
2022-10-29T17:37:23.740Z,11.10
2022-10-29T17:40:03.031Z,11.73
2022-10-29T17:42:42.766Z,10.97
2022-10-29T17:45:20.422Z,11.07
2022-10-29T17:47:57.636Z,12.67
2022-10-29T17:50:33.057Z,10.07
2022-10-29T17:53:09.002Z,10.53
2022-10-29T17:55:43.914Z,12.87
2022-10-29T17:58:20.138Z,13.63
2022-10-29T18:00:55.196Z,14.63
2022-10-29T18:03:30.142Z,12.50
2022-10-29T18:06:10.523Z,13.53
2022-10-29T18:08:45.497Z,13.10
2022-10-29T18:11:23.702Z,12.73
2022-10-29T18:13:58.724Z,17.20
2022-10-29T18:16:33.605Z,11.67
2022-10-29T18:19:08.590Z,12.37
2022-10-29T18:21:43.452Z,12.50
2022-10-29T18:24:19.386Z,12.13
2022-10-29T18:26:54.386Z,13.40
2022-10-29T18:29:29.323Z,15.73
2022-10-29T18:32:04.713Z,14.10
2022-10-29T18:34:39.690Z,12.33
2022-10-29T18:37:14.728Z,10.73
2022-10-29T18:39:49.586Z,10.00
2022-10-29T18:42:24.579Z,19.80
2022-10-29T18:44:59.505Z,11.53
2022-10-29T18:47:34.469Z,12.30
2022-10-29T18:50:10.461Z,12.83
2022-10-29T18:52:45.404Z,13.60
2022-10-29T18:55:20.285Z,14.27
2022-10-29T18:57:55.211Z,13.73
2022-10-29T19:00:30.328Z,12.53
2022-10-29T19:03:05.277Z,14.03
2022-10-29T19:05:40.895Z,11.20
2022-10-29T19:08:15.900Z,13.27
2022-10-29T19:10:50.891Z,12.20
2022-10-29T19:13:25.828Z,11.53
2022-10-29T19:16:07.057Z,11.23
2022-10-29T19:18:42.103Z,10.13
2022-10-29T19:21:18.631Z,10.93
2022-10-29T19:23:59.128Z,12.23
2022-10-29T19:26:36.141Z,14.60
2022-10-29T19:29:11.908Z,11.90
2022-10-29T19:31:48.035Z,12.03
2022-10-29T19:34:22.975Z,14.80
2022-10-29T19:36:57.811Z,11.87
2022-10-29T19:39:32.735Z,11.80
2022-10-29T19:42:07.714Z,11.87
2022-10-29T19:44:42.648Z,14.33
2022-10-29T19:47:17.582Z,12.73
2022-10-29T19:49:52.502Z,18.90
2022-10-29T19:52:27.359Z,17.00
2022-10-29T19:55:02.284Z,17.73
2022-10-29T19:57:37.263Z,25.67
2022-10-29T20:00:16.698Z,18.77
2022-10-29T20:02:53.247Z,17.73
2022-10-29T20:05:28.201Z,15.83
2022-10-29T20:08:03.208Z,15.77
2022-10-29T20:10:38.644Z,14.37
2022-10-29T20:13:13.522Z,16.13
2022-10-29T20:15:48.495Z,14.90
2022-10-29T20:18:23.835Z,16.23
2022-10-29T20:20:58.785Z,16.60
2022-10-29T20:23:33.812Z,14.80
2022-10-29T20:26:09.272Z,23.03
2022-10-29T20:28:44.408Z,15.33
2022-10-29T20:31:19.277Z,17.97
2022-10-29T20:33:59.872Z,15.70
2022-10-29T20:36:35.304Z,17.00
2022-10-29T20:39:11.875Z,15.07
2022-10-29T20:41:47.893Z,15.17
2022-10-29T20:44:22.865Z,15.37
2022-10-29T20:46:57.791Z,13.60
2022-10-29T20:49:32.765Z,13.87
2022-10-29T20:52:08.094Z,14.20
2022-10-29T20:54:49.782Z,14.70
2022-10-29T20:57:24.702Z,15.00
2022-10-29T20:59:59.646Z,15.17
2022-10-29T21:02:34.710Z,18.60
2022-10-29T21:05:09.707Z,12.33
2022-10-29T21:07:44.649Z,12.90
2022-10-29T21:10:19.567Z,15.07
2022-10-29T21:12:54.649Z,15.73
2022-10-29T21:15:30.518Z,16.00
2022-10-29T21:18:05.661Z,13.17
2022-10-29T21:20:40.516Z,22.50
2022-10-29T21:23:19.877Z,16.47
2022-10-29T21:25:58.764Z,14.43
2022-10-29T21:28:34.107Z,14.30
2022-10-29T21:31:09.674Z,16.60
2022-10-29T21:33:44.805Z,17.20
2022-10-29T21:36:20.655Z,13.53
2022-10-29T21:38:55.759Z,19.20
2022-10-29T21:41:30.669Z,15.67
2022-10-29T21:44:05.592Z,14.00
2022-10-29T21:46:40.513Z,18.50
2022-10-29T21:49:15.535Z,16.30
2022-10-29T21:51:50.574Z,13.53
2022-10-29T21:54:28.280Z,13.27
2022-10-29T21:57:03.576Z,19.37
2022-10-29T21:59:38.481Z,12.30
2022-10-29T22:02:13.454Z,14.73
2022-10-29T22:04:48.474Z,15.20
2022-10-29T22:07:23.352Z,13.10
2022-10-29T22:09:58.320Z,12.90
2022-10-29T22:12:33.691Z,12.13
2022-10-29T22:15:09.089Z,16.57
2022-10-29T22:17:43.984Z,14.47
2022-10-29T22:20:18.868Z,11.10
2022-10-29T22:22:53.794Z,10.57
2022-10-29T22:25:28.757Z,12.80
2022-10-29T22:28:03.966Z,12.20
2022-10-29T22:30:38.898Z,11.03
2022-10-29T22:33:13.852Z,14.77
2022-10-29T22:35:48.768Z,11.70
2022-10-29T22:38:23.676Z,12.83
2022-10-29T22:40:58.663Z,11.97
2022-10-29T22:43:33.875Z,14.33
2022-10-29T22:46:10.230Z,14.30
2022-10-29T22:48:45.718Z,12.70
2022-10-29T22:51:23.992Z,15.77
2022-10-29T22:53:59.009Z,12.17
2022-10-29T22:56:36.707Z,14.17
2022-10-29T22:59:11.765Z,11.90
2022-10-29T23:01:46.956Z,12.70
2022-10-29T23:04:22.621Z,13.57
2022-10-29T23:07:01.692Z,11.80
2022-10-29T23:09:36.929Z,11.10
2022-10-29T23:12:11.846Z,11.50
2022-10-29T23:14:46.730Z,11.37
2022-10-29T23:17:21.607Z,12.03
2022-10-29T23:19:56.575Z,13.77
2022-10-29T23:22:31.488Z,12.97
2022-10-29T23:25:06.813Z,12.27
2022-10-29T23:27:41.761Z,12.83
2022-10-29T23:30:16.701Z,12.10
2022-10-29T23:32:51.636Z,13.67
2022-10-29T23:35:26.576Z,13.67
2022-10-29T23:38:01.569Z,14.13
2022-10-29T23:40:36.582Z,12.97
2022-10-29T23:43:12.239Z,14.50
2022-10-29T23:45:47.258Z,12.70
2022-10-29T23:48:22.157Z,11.60
2022-10-29T23:50:57.377Z,10.30
2022-10-29T23:53:32.237Z,12.07
2022-10-29T23:56:07.675Z,13.37
2022-10-29T23:58:42.606Z,11.13
